Hauptseite
METAR-TAF:

METAR-TAF

Flughäfen :

Flughafen Berlin-Tegel

Berlin, Deutschland

Breite: 52-34N, Länge: 013-19E, Höhe: 37 m

Beobachtung

Neuester Wetterbericht von vor 29 Minuten, um 22:50 UTC
Wind 11 kt aus Ost, variierte zwischen Nordost und Ost/Südost
Temperatur 2°C
Luftfeuchtigkeit 69%
Luftdruck 1019 hPa
Sichtweite 10 km oder mehr
Durchbrochene Bewölkung in der Höhe von 2100 ft

METAR: EDDT 202250Z 09011KT 050V120 9999 BKN021 02/M03 Q1019

Zeit: 00:19 (23:19 UTC)

Prognose

Neuester Wetterbericht von vor 6 Stunden und 19 Minuten, um 17:00 UTC
Gültige Prognose vom 20 um 18 UTC bis 21 um 18 UTC
Wind 11 kt aus Ost
Sichtweite 10 km oder mehr
Durchbrochene Bewölkung in der Höhe von 2000 ft
Zeitweise
vom 21 um 03 UTC bis 21 um 18 UTC
Durchbrochene Bewölkung in der Höhe von 1200 ft

TAF: EDDT 201700Z 2018/2118 08011KT 9999 BKN020 TEMPO 2103/2118 BKN012

Wetterbeobachtungen und Prognosen von mehr als 4000 Flughäfen (METAR und TAF Bericht).

Die verfügbaren Stationen werden durch gelbe und rote Markierungen auf der Karte dargestellt.

Führen Sie die Maus auf sie, um den Namen der Station zu sehen.

Darauf klicken, um die Beobachtung von Wetterbeobachtungen und Prognosen zu sehen.

Um die Karte zu ändern : klicken Sie auf den grünen Tasten mit einem schwarzen Kreuz Zum Vergrößern, auf den grünen Button mit einem Gedankenstrich zu verkleinern, oder auf die grünen Pfeile für benachbarte Karten.


METAR-TAF: